createdAt,value
2023-06-05T00:00:22.634Z,35.59
2023-06-05T00:01:22.704Z,35.63
2023-06-05T00:02:22.817Z,35.65
2023-06-05T00:03:23.022Z,35.59
2023-06-05T00:04:22.999Z,35.58
2023-06-05T00:05:22.940Z,35.59
2023-06-05T00:06:22.988Z,35.62
2023-06-05T00:07:23.042Z,35.65
2023-06-05T00:08:23.108Z,35.61
2023-06-05T00:09:23.169Z,35.64
2023-06-05T00:10:23.244Z,35.64
2023-06-05T00:11:23.306Z,35.60
2023-06-05T00:12:23.362Z,35.64
2023-06-05T00:13:23.434Z,35.65
2023-06-05T00:14:23.499Z,35.63
2023-06-05T00:15:23.536Z,35.65
2023-06-05T00:16:23.628Z,35.62
2023-06-05T00:17:23.705Z,35.66
2023-06-05T00:18:23.671Z,35.69
2023-06-05T00:19:23.717Z,35.65
2023-06-05T00:20:23.762Z,35.66
2023-06-05T00:21:23.811Z,35.64
2023-06-05T00:22:23.839Z,35.68
2023-06-05T00:23:23.912Z,35.69
2023-06-05T00:24:23.922Z,35.68
2023-06-05T00:25:23.991Z,35.65
2023-06-05T00:26:24.011Z,35.70
2023-06-05T00:27:24.041Z,35.68
2023-06-05T00:28:24.077Z,35.66
2023-06-05T00:29:24.186Z,35.68
2023-06-05T00:30:24.131Z,35.71
2023-06-05T00:31:24.197Z,35.71
2023-06-05T00:32:24.241Z,35.65
2023-06-05T00:33:24.858Z,35.73
2023-06-05T00:34:24.648Z,35.67
2023-06-05T00:35:24.649Z,35.68
2023-06-05T00:36:24.654Z,35.73
2023-06-05T00:37:24.645Z,35.68
2023-06-05T00:38:24.649Z,35.67
2023-06-05T00:39:24.676Z,35.70
2023-06-05T00:40:24.649Z,35.68
2023-06-05T00:41:24.651Z,35.73
2023-06-05T00:42:24.655Z,35.67
2023-06-05T00:43:24.666Z,35.68
2023-06-05T00:44:24.666Z,35.71
2023-06-05T00:45:24.658Z,35.68
2023-06-05T00:46:24.790Z,35.73
2023-06-05T00:47:24.683Z,35.70
2023-06-05T00:48:24.688Z,35.70
2023-06-05T00:49:24.732Z,35.71
2023-06-05T00:50:24.788Z,35.70
2023-06-05T00:51:24.793Z,35.71
2023-06-05T00:52:24.834Z,35.68
2023-06-05T00:53:24.892Z,35.72
2023-06-05T00:54:24.944Z,35.72
2023-06-05T00:55:24.978Z,35.71
2023-06-05T00:56:25.055Z,35.70
2023-06-05T00:57:25.083Z,35.70
2023-06-05T00:58:25.121Z,35.70
2023-06-05T00:59:25.151Z,35.66
2023-06-05T01:00:25.552Z,35.73
2023-06-05T01:01:25.652Z,35.71
2023-06-05T01:02:25.635Z,35.71
2023-06-05T01:03:25.653Z,35.71
2023-06-05T01:04:25.586Z,35.76
2023-06-05T01:05:25.611Z,35.68
2023-06-05T01:06:25.589Z,35.71
2023-06-05T01:07:25.588Z,35.73
2023-06-05T01:08:25.589Z,35.72
2023-06-05T01:09:25.602Z,35.70
2023-06-05T01:10:25.594Z,35.71
2023-06-05T01:11:25.589Z,35.71
2023-06-05T01:12:25.594Z,35.72
2023-06-05T01:13:25.592Z,35.71
2023-06-05T01:14:25.595Z,35.71
2023-06-05T01:15:25.614Z,35.73
2023-06-05T01:16:25.625Z,35.71
2023-06-05T01:17:25.616Z,35.72
2023-06-05T01:18:25.591Z,35.72
2023-06-05T01:19:25.600Z,35.69
2023-06-05T01:20:25.599Z,35.75
2023-06-05T01:21:25.600Z,35.71
2023-06-05T01:22:25.611Z,35.71
2023-06-05T01:23:25.653Z,35.72
2023-06-05T01:24:25.632Z,35.73
2023-06-05T01:25:25.647Z,35.71
2023-06-05T01:26:25.694Z,35.70
2023-06-05T01:27:25.689Z,35.72
2023-06-05T01:28:25.680Z,35.73
2023-06-05T01:29:25.669Z,35.71
2023-06-05T01:30:25.690Z,35.72
2023-06-05T01:31:25.776Z,35.74
2023-06-05T01:32:25.728Z,35.70
2023-06-05T01:33:25.699Z,35.71
2023-06-05T01:34:25.715Z,35.72
2023-06-05T01:35:25.713Z,35.69
2023-06-05T01:36:25.713Z,35.72
2023-06-05T01:37:25.721Z,35.74
2023-06-05T01:38:25.730Z,35.76
2023-06-05T01:39:25.720Z,35.73
2023-06-05T01:40:25.738Z,35.73
2023-06-05T01:41:25.742Z,35.72
2023-06-05T01:42:25.745Z,35.72
2023-06-05T01:43:25.748Z,35.69
2023-06-05T01:44:25.767Z,35.69
2023-06-05T01:45:25.761Z,35.73
2023-06-05T01:46:25.872Z,35.72
2023-06-05T01:47:25.812Z,35.71
2023-06-05T01:48:25.793Z,35.69
2023-06-05T01:49:25.804Z,35.69
2023-06-05T01:50:25.808Z,35.68
2023-06-05T01:51:25.811Z,35.72
2023-06-05T01:52:25.813Z,35.70
2023-06-05T01:53:25.834Z,35.72
2023-06-05T01:54:25.863Z,35.72
2023-06-05T01:55:25.863Z,35.71
2023-06-05T01:56:25.870Z,35.72
2023-06-05T01:57:25.867Z,35.76
2023-06-05T01:58:25.877Z,35.72
2023-06-05T01:59:25.886Z,35.69
2023-06-05T02:00:25.901Z,35.65
2023-06-05T02:01:25.928Z,35.73
2023-06-05T02:02:25.935Z,35.67
2023-06-05T02:03:26.094Z,35.72
2023-06-05T02:04:25.924Z,35.73
2023-06-05T02:05:25.938Z,35.73
2023-06-05T02:06:25.936Z,35.72
2023-06-05T02:07:25.926Z,35.71
2023-06-05T02:08:25.937Z,35.73
2023-06-05T02:09:25.930Z,35.73
2023-06-05T02:10:25.958Z,35.70
2023-06-05T02:11:25.959Z,35.73
2023-06-05T02:12:25.960Z,35.70
2023-06-05T02:13:26.087Z,35.70
2023-06-05T02:14:25.976Z,35.69
2023-06-05T02:15:25.994Z,35.70
2023-06-05T02:16:26.012Z,35.70
2023-06-05T02:17:25.988Z,35.71
2023-06-05T02:18:25.964Z,35.74
2023-06-05T02:19:25.969Z,35.71
2023-06-05T02:20:25.957Z,35.75
2023-06-05T02:21:25.959Z,35.73
2023-06-05T02:22:25.950Z,35.70
2023-06-05T02:23:26.039Z,35.71
2023-06-05T02:24:25.970Z,35.72
2023-06-05T02:25:25.955Z,35.74
2023-06-05T02:26:25.957Z,35.71
2023-06-05T02:27:25.952Z,35.70
2023-06-05T02:28:25.963Z,35.74
2023-06-05T02:29:25.962Z,35.77
2023-06-05T02:30:25.984Z,35.71
2023-06-05T02:31:26.023Z,35.71
2023-06-05T02:32:25.981Z,35.67
2023-06-05T02:33:25.965Z,35.74
2023-06-05T02:34:26.116Z,35.70
2023-06-05T02:35:25.961Z,35.69
2023-06-05T02:36:25.949Z,35.71
2023-06-05T02:37:25.946Z,35.71
2023-06-05T02:38:25.920Z,35.72
2023-06-05T02:39:25.930Z,35.73
2023-06-05T02:40:25.932Z,35.75
2023-06-05T02:41:25.930Z,35.70
2023-06-05T02:42:25.945Z,35.71
2023-06-05T02:43:25.937Z,35.71
2023-06-05T02:44:25.932Z,35.68
2023-06-05T02:45:25.936Z,35.75
2023-06-05T02:46:26.091Z,35.69
2023-06-05T02:47:25.989Z,35.70
2023-06-05T02:48:25.915Z,35.67
2023-06-05T02:49:25.900Z,35.71
2023-06-05T02:50:25.910Z,35.67
2023-06-05T02:51:25.922Z,35.72
2023-06-05T02:52:25.899Z,35.70
2023-06-05T02:53:25.893Z,35.67
2023-06-05T02:54:25.892Z,35.70
2023-06-05T02:55:25.914Z,35.70
2023-06-05T02:56:25.891Z,35.70
2023-06-05T02:57:25.894Z,35.71
2023-06-05T02:58:25.879Z,35.66
2023-06-05T02:59:25.904Z,35.70
2023-06-05T03:00:25.872Z,35.74
2023-06-05T03:01:25.931Z,35.67
2023-06-05T03:02:25.905Z,35.67
2023-06-05T03:03:25.957Z,35.67
2023-06-05T03:04:25.853Z,35.67
2023-06-05T03:05:26.362Z,35.70
2023-06-05T03:06:25.840Z,35.68
2023-06-05T03:07:25.847Z,35.70
2023-06-05T03:08:25.833Z,35.68
2023-06-05T03:09:25.829Z,35.67
2023-06-05T03:10:25.832Z,35.72
2023-06-05T03:11:25.860Z,35.67
2023-06-05T03:12:25.866Z,35.66
2023-06-05T03:13:25.839Z,35.66
2023-06-05T03:14:25.818Z,35.70
2023-06-05T03:15:25.815Z,35.67
2023-06-05T03:16:25.918Z,35.72
2023-06-05T03:17:25.857Z,35.72
2023-06-05T03:18:25.815Z,35.71
2023-06-05T03:19:25.816Z,35.69
2023-06-05T03:20:25.816Z,35.70
2023-06-05T03:21:25.819Z,35.68
2023-06-05T03:22:25.838Z,35.67
2023-06-05T03:23:25.842Z,35.67
2023-06-05T03:24:25.882Z,35.67
2023-06-05T03:25:26.452Z,35.69
2023-06-05T03:26:25.820Z,35.71
2023-06-05T03:27:25.814Z,35.73
2023-06-05T03:28:25.795Z,35.70
2023-06-05T03:29:25.796Z,35.67
2023-06-05T03:30:25.796Z,35.66
2023-06-05T03:31:25.815Z,35.71
2023-06-05T03:32:25.828Z,35.68
2023-06-05T03:33:25.815Z,35.68
2023-06-05T03:34:25.779Z,35.64
2023-06-05T03:35:25.775Z,35.70
2023-06-05T03:36:25.771Z,35.68
2023-06-05T03:37:25.781Z,35.69
2023-06-05T03:38:25.779Z,35.66
2023-06-05T03:39:25.784Z,35.68
2023-06-05T03:40:25.875Z,35.67
2023-06-05T03:41:25.793Z,35.66
2023-06-05T03:42:25.788Z,35.68
2023-06-05T03:43:25.794Z,35.72
2023-06-05T03:44:25.820Z,35.71
2023-06-05T03:45:25.786Z,35.71
2023-06-05T03:46:25.912Z,35.73
2023-06-05T03:47:25.854Z,35.67
2023-06-05T03:48:25.803Z,35.67
2023-06-05T03:49:25.805Z,35.69
2023-06-05T03:50:25.787Z,35.73
2023-06-05T03:51:25.805Z,35.66
2023-06-05T03:52:25.824Z,35.66
2023-06-05T03:53:25.802Z,35.64
2023-06-05T03:54:25.813Z,35.72
2023-06-05T03:55:25.817Z,35.68
2023-06-05T03:56:25.822Z,35.67
2023-06-05T03:57:25.837Z,35.68
2023-06-05T03:58:25.823Z,35.67
2023-06-05T03:59:25.829Z,35.68
2023-06-05T04:00:25.831Z,35.68
2023-06-05T04:01:25.847Z,35.69
2023-06-05T04:02:25.938Z,35.67
2023-06-05T04:03:26.000Z,35.68
2023-06-05T04:04:25.874Z,35.69
2023-06-05T04:05:25.867Z,35.68
2023-06-05T04:06:25.872Z,35.67
2023-06-05T04:07:25.874Z,35.67
2023-06-05T04:08:25.875Z,35.70
2023-06-05T04:09:25.887Z,35.71
2023-06-05T04:10:25.892Z,35.71
2023-06-05T04:11:25.907Z,35.67
2023-06-05T04:12:25.903Z,35.69
2023-06-05T04:13:25.906Z,35.71
2023-06-05T04:14:25.924Z,35.68
2023-06-05T04:15:25.918Z,35.66
2023-06-05T04:16:25.963Z,35.66
2023-06-05T04:17:25.939Z,35.63
2023-06-05T04:18:25.948Z,35.70
2023-06-05T04:19:25.928Z,35.66
2023-06-05T04:20:25.923Z,35.69
2023-06-05T04:21:25.935Z,35.67
2023-06-05T04:22:25.941Z,35.66
2023-06-05T04:23:25.969Z,35.64
2023-06-05T04:24:25.951Z,35.69
2023-06-05T04:25:25.957Z,35.68
2023-06-05T04:26:25.957Z,35.68
2023-06-05T04:27:25.956Z,35.67
2023-06-05T04:28:25.949Z,35.68
2023-06-05T04:29:25.959Z,35.67
2023-06-05T04:30:25.960Z,35.67
2023-06-05T04:31:26.159Z,35.62
2023-06-05T04:32:26.008Z,35.64
2023-06-05T04:33:25.972Z,35.69
2023-06-05T04:34:25.965Z,35.68
2023-06-05T04:35:25.965Z,35.66
2023-06-05T04:36:25.965Z,35.66
2023-06-05T04:37:25.974Z,35.67
2023-06-05T04:38:25.976Z,35.66
2023-06-05T04:39:25.989Z,35.65
2023-06-05T04:40:25.986Z,35.64
2023-06-05T04:41:26.014Z,35.64
2023-06-05T04:42:25.988Z,35.64
2023-06-05T04:43:25.989Z,35.64
2023-06-05T04:44:25.995Z,35.66
2023-06-05T04:45:25.990Z,35.71
2023-06-05T04:46:26.115Z,35.67
2023-06-05T04:47:26.022Z,35.67
2023-06-05T04:48:26.026Z,35.69
2023-06-05T04:49:25.998Z,35.66
2023-06-05T04:50:26.015Z,35.65
2023-06-05T04:51:26.018Z,35.64
2023-06-05T04:52:26.016Z,35.64
2023-06-05T04:53:26.024Z,35.68
2023-06-05T04:54:26.029Z,35.67
2023-06-05T04:55:26.035Z,35.68
2023-06-05T04:56:26.084Z,35.65
2023-06-05T04:57:26.027Z,35.66
2023-06-05T04:58:26.037Z,35.67
2023-06-05T04:59:26.062Z,35.64
2023-06-05T05:00:26.053Z,35.66
2023-06-05T05:01:26.097Z,35.66
2023-06-05T05:02:26.067Z,35.66
2023-06-05T05:03:26.060Z,35.63
2023-06-05T05:04:26.108Z,35.62
2023-06-05T05:05:26.064Z,35.68
2023-06-05T05:06:26.078Z,35.64
2023-06-05T05:07:26.556Z,35.66
2023-06-05T05:08:26.083Z,35.67
2023-06-05T05:09:26.123Z,35.62
2023-06-05T05:10:26.086Z,35.60
2023-06-05T05:11:26.100Z,35.66
2023-06-05T05:12:26.109Z,35.68
2023-06-05T05:13:26.098Z,35.62
2023-06-05T05:14:26.135Z,35.63
2023-06-05T05:15:27.005Z,35.64
2023-06-05T05:16:26.146Z,35.66
2023-06-05T05:17:26.116Z,35.63
2023-06-05T05:18:26.095Z,35.65
2023-06-05T05:19:26.091Z,35.64
2023-06-05T05:20:27.010Z,35.63
2023-06-05T05:21:26.125Z,35.65
2023-06-05T05:22:26.124Z,35.64
2023-06-05T05:23:26.140Z,35.64
2023-06-05T05:24:26.116Z,35.70
2023-06-05T05:25:29.310Z,35.75
2023-06-05T05:26:26.105Z,35.80
2023-06-05T05:27:26.090Z,35.80
2023-06-05T05:28:26.524Z,35.93
2023-06-05T05:29:26.081Z,35.96
2023-06-05T05:30:26.074Z,36.05
2023-06-05T05:31:26.576Z,36.11
2023-06-05T05:32:26.086Z,36.22
2023-06-05T05:33:26.056Z,36.41
2023-06-05T05:34:26.114Z,36.43
2023-06-05T05:35:26.059Z,36.47
2023-06-05T05:36:26.027Z,36.48
2023-06-05T05:37:26.035Z,36.79
2023-06-05T05:38:26.026Z,36.89
2023-06-05T05:39:26.513Z,37.04
2023-06-05T05:40:26.013Z,37.13
2023-06-05T05:41:26.018Z,37.32
2023-06-05T05:42:26.183Z,37.30
2023-06-05T05:43:25.985Z,37.24
2023-06-05T05:44:26.004Z,37.38
2023-06-05T05:45:25.973Z,37.41
2023-06-05T05:46:27.747Z,37.35
2023-06-05T05:47:26.005Z,37.57
2023-06-05T05:48:25.946Z,37.62
2023-06-05T05:49:25.939Z,37.81
2023-06-05T05:50:25.930Z,37.78
2023-06-05T05:51:26.021Z,37.88
2023-06-05T05:52:25.923Z,37.85
2023-06-05T05:53:25.939Z,37.93
2023-06-05T05:54:25.900Z,38.07
2023-06-05T05:55:25.898Z,38.10
2023-06-05T05:56:26.037Z,38.17
2023-06-05T05:57:26.024Z,38.25
2023-06-05T05:58:41.517Z,38.31
2023-06-05T05:59:33.274Z,38.38
2023-06-05T06:00:57.664Z,38.45
2023-06-05T06:01:25.859Z,38.58
2023-06-05T06:02:26.111Z,38.71
2023-06-05T06:03:26.418Z,38.75
2023-06-05T06:05:33.228Z,38.85
2023-06-05T06:06:25.833Z,39.07
2023-06-05T06:07:26.101Z,39.02
2023-06-05T06:08:25.838Z,39.09
2023-06-05T06:09:25.835Z,39.26
2023-06-05T06:10:25.805Z,39.36
2023-06-05T06:11:25.837Z,39.43
2023-06-05T06:12:26.063Z,39.47
2023-06-05T06:13:25.787Z,39.63
2023-06-05T06:14:26.173Z,39.68
2023-06-05T06:15:25.776Z,39.76
2023-06-05T06:16:25.825Z,39.77
2023-06-05T06:17:26.098Z,40.02
2023-06-05T06:18:25.743Z,39.92
2023-06-05T06:19:25.766Z,40.00
2023-06-05T06:20:25.755Z,40.12
2023-06-05T06:21:26.046Z,40.04
2023-06-05T06:22:25.752Z,40.33
2023-06-05T06:23:26.335Z,40.25
2023-06-05T06:24:25.785Z,40.23
2023-06-05T06:25:25.706Z,40.25
2023-06-05T06:26:26.039Z,39.91
2023-06-05T06:28:24.786Z,40.01
2023-06-05T06:29:25.672Z,39.98
2023-06-05T06:30:26.330Z,40.08
2023-06-05T06:31:25.835Z,40.13
2023-06-05T06:32:25.682Z,39.93
2023-06-05T06:33:25.641Z,39.66
2023-06-05T06:35:25.625Z,39.20
2023-06-05T06:36:26.047Z,39.03
2023-06-05T06:37:25.640Z,39.44
2023-06-05T06:38:25.615Z,39.63
2023-06-05T06:39:25.596Z,39.55
2023-06-05T06:40:25.598Z,39.55
2023-06-05T06:41:29.240Z,39.65
2023-06-05T06:44:28.790Z,39.81
2023-06-05T06:45:26.109Z,39.90
2023-06-05T06:47:25.759Z,39.91
2023-06-05T06:48:25.584Z,39.98
2023-06-05T06:49:25.677Z,40.00
2023-06-05T06:50:26.003Z,40.13
2023-06-05T06:51:26.554Z,40.07
2023-06-05T06:52:26.394Z,40.08
2023-06-05T06:53:28.723Z,40.12
2023-06-05T06:54:26.525Z,40.03
2023-06-05T06:55:26.516Z,40.12
2023-06-05T06:56:25.559Z,40.02
2023-06-05T06:57:28.695Z,40.06
2023-06-05T06:58:25.732Z,40.06
2023-06-05T06:59:25.747Z,40.10
2023-06-05T07:00:26.462Z,40.10
2023-06-05T07:01:25.661Z,40.13
2023-06-05T07:02:25.528Z,40.21
2023-06-05T07:03:25.529Z,40.25
2023-06-05T07:04:41.046Z,40.26
2023-06-05T07:05:25.442Z,40.21
2023-06-05T07:06:25.584Z,40.35
2023-06-05T07:07:25.436Z,40.35
2023-06-05T07:08:25.438Z,40.32
2023-06-05T07:09:28.636Z,40.31
2023-06-05T07:10:25.793Z,40.29
2023-06-05T07:11:25.808Z,40.31
2023-06-05T07:12:25.651Z,40.35
2023-06-05T07:13:25.401Z,40.39
2023-06-05T07:14:28.582Z,40.40
2023-06-05T07:15:28.570Z,40.37
2023-06-05T07:16:25.583Z,40.32
2023-06-05T07:17:25.589Z,40.30
2023-06-05T07:18:25.382Z,40.28
2023-06-05T07:19:25.367Z,40.34
2023-06-05T07:20:32.785Z,40.30
2023-06-05T07:21:25.813Z,40.35
2023-06-05T07:22:26.693Z,40.32
2023-06-05T07:23:25.381Z,40.37
2023-06-05T07:24:25.361Z,40.44
2023-06-05T07:25:26.375Z,40.48
2023-06-05T07:26:25.439Z,40.46
2023-06-05T07:27:25.586Z,40.25
2023-06-05T07:28:25.953Z,39.88
2023-06-05T07:29:25.653Z,39.50
2023-06-05T07:30:28.858Z,39.97
2023-06-05T07:31:28.845Z,40.07
2023-06-05T07:32:29.729Z,39.93
2023-06-05T07:33:31.216Z,39.86
2023-06-05T07:34:29.073Z,39.77
2023-06-05T07:35:29.363Z,39.86
2023-06-05T07:36:26.694Z,39.83
2023-06-05T07:37:25.617Z,39.81
2023-06-05T07:39:25.560Z,39.83
2023-06-05T07:40:25.595Z,39.84
2023-06-05T07:41:25.549Z,39.96
2023-06-05T07:42:28.783Z,39.98
2023-06-05T07:43:25.540Z,39.95
2023-06-05T07:44:25.846Z,40.07
2023-06-05T07:45:25.761Z,39.97
2023-06-05T07:46:25.899Z,39.88
2023-06-05T07:47:33.030Z,39.91
2023-06-05T07:48:25.500Z,40.02
2023-06-05T07:49:25.515Z,40.03
2023-06-05T07:51:32.871Z,39.77
2023-06-05T07:52:25.588Z,39.63
2023-06-05T07:53:41.190Z,39.43
2023-06-05T07:54:28.655Z,39.55
2023-06-05T07:55:25.446Z,39.31
2023-06-05T07:56:25.448Z,39.41
2023-06-05T07:57:25.835Z,39.24
2023-06-05T07:58:28.609Z,39.32
2023-06-05T07:59:28.650Z,39.23
2023-06-05T08:00:32.825Z,39.20
2023-06-05T08:01:26.395Z,39.00
2023-06-05T08:02:25.849Z,39.22
2023-06-05T08:03:32.983Z,39.32
2023-06-05T08:04:25.538Z,39.06
2023-06-05T08:05:25.389Z,39.19
2023-06-05T08:06:25.416Z,38.56
2023-06-05T08:07:25.373Z,38.46
2023-06-05T08:08:25.360Z,38.50
2023-06-05T08:09:25.405Z,38.70
2023-06-05T08:10:25.336Z,38.84
2023-06-05T08:11:25.345Z,39.42
2023-06-05T08:12:25.580Z,39.39
2023-06-05T08:13:25.567Z,39.51
2023-06-05T08:14:26.333Z,39.62
2023-06-05T08:15:25.336Z,39.69
2023-06-05T08:16:26.347Z,39.71
2023-06-05T08:17:25.368Z,39.13
2023-06-05T08:18:25.294Z,39.06
2023-06-05T08:19:25.284Z,38.85
2023-06-05T08:20:25.286Z,39.09
2023-06-05T08:21:25.280Z,38.97
2023-06-05T08:22:25.626Z,39.21
2023-06-05T08:23:26.270Z,38.71
2023-06-05T08:24:25.278Z,38.51
2023-06-05T08:25:25.279Z,38.21
2023-06-05T08:26:25.289Z,38.09
2023-06-05T08:27:25.597Z,38.45
2023-06-05T08:28:25.299Z,38.75
2023-06-05T08:29:25.313Z,38.66
2023-06-05T08:30:25.291Z,38.06
2023-06-05T08:31:25.289Z,38.06
2023-06-05T08:32:25.650Z,38.22
2023-06-05T08:33:25.283Z,38.43
2023-06-05T08:34:25.304Z,38.53
2023-06-05T08:35:25.325Z,38.52
2023-06-05T08:36:25.491Z,38.40
2023-06-05T08:37:26.341Z,38.66
2023-06-05T08:38:42.356Z,38.53
2023-06-05T08:39:25.356Z,38.40
2023-06-05T08:40:25.342Z,38.50
2023-06-05T08:41:25.613Z,37.77
2023-06-05T08:42:26.643Z,37.96
2023-06-05T08:43:25.328Z,37.93
2023-06-05T08:44:25.339Z,37.91
2023-06-05T08:45:25.313Z,38.15
2023-06-05T08:47:28.638Z,37.91
2023-06-05T08:48:28.509Z,37.97
2023-06-05T08:49:26.306Z,37.65
2023-06-05T08:51:57.104Z,37.58
2023-06-05T08:52:25.610Z,37.69
2023-06-05T08:53:32.668Z,37.62
2023-06-05T08:54:28.838Z,37.64
2023-06-05T08:55:25.257Z,37.83
2023-06-05T08:56:25.325Z,37.95
2023-06-05T08:57:25.244Z,38.08
2023-06-05T08:58:25.247Z,38.19
2023-06-05T08:59:25.882Z,37.85
2023-06-05T09:00:25.238Z,37.90
2023-06-05T09:01:25.243Z,37.94
2023-06-05T09:02:25.999Z,37.88
2023-06-05T09:03:25.319Z,37.84
2023-06-05T09:04:27.193Z,37.80
2023-06-05T09:05:25.189Z,37.70
2023-06-05T09:06:25.196Z,37.75
2023-06-05T09:07:25.189Z,37.83
2023-06-05T09:08:25.171Z,37.92
2023-06-05T09:09:25.148Z,37.94
2023-06-05T09:10:25.167Z,37.98
2023-06-05T09:11:25.177Z,37.99
2023-06-05T09:12:25.141Z,37.94
2023-06-05T09:13:25.126Z,37.90
2023-06-05T09:14:28.345Z,37.76
2023-06-05T09:15:25.140Z,37.77
2023-06-05T09:16:25.208Z,37.92
2023-06-05T09:17:25.337Z,37.99
2023-06-05T09:18:32.530Z,37.82
2023-06-05T09:19:25.094Z,37.84
2023-06-05T09:20:25.126Z,37.92
2023-06-05T09:21:25.086Z,37.93
2023-06-05T09:22:25.081Z,37.89
2023-06-05T09:23:25.828Z,37.87
2023-06-05T09:24:25.380Z,37.92
2023-06-05T09:25:25.297Z,37.87
2023-06-05T09:26:25.297Z,37.89
2023-06-05T09:27:25.700Z,38.05
2023-06-05T09:28:25.640Z,37.93
2023-06-05T09:29:28.576Z,38.07
2023-06-05T09:30:25.417Z,37.81
2023-06-05T09:31:25.480Z,37.67
2023-06-05T09:32:25.381Z,37.63
2023-06-05T09:33:25.648Z,37.72
2023-06-05T09:34:26.280Z,37.75
2023-06-05T09:36:25.280Z,37.74
2023-06-05T09:37:25.910Z,37.81
2023-06-05T09:38:25.671Z,37.73
2023-06-05T09:39:28.624Z,37.69
2023-06-05T09:40:25.424Z,37.76
2023-06-05T09:41:25.417Z,37.75
2023-06-05T09:42:25.927Z,37.87
2023-06-05T09:43:28.638Z,37.85
2023-06-05T09:44:25.411Z,37.93
2023-06-05T09:45:25.395Z,37.83
2023-06-05T09:46:25.425Z,38.00
2023-06-05T09:47:25.946Z,38.15
2023-06-05T09:48:25.388Z,38.11
2023-06-05T09:49:29.256Z,38.22
2023-06-05T09:50:25.462Z,38.31
2023-06-05T09:51:25.811Z,38.28
2023-06-05T09:52:26.926Z,38.31
2023-06-05T09:53:25.852Z,38.24
2023-06-05T09:54:26.589Z,38.29
2023-06-05T09:55:25.576Z,38.40
2023-06-05T09:56:25.572Z,38.37
2023-06-05T09:57:25.598Z,38.31
2023-06-05T09:58:25.616Z,38.45
2023-06-05T09:59:26.632Z,38.61
2023-06-05T10:00:25.693Z,38.58
2023-06-05T10:01:26.317Z,38.59
2023-06-05T10:03:25.687Z,38.46
2023-06-05T10:04:33.120Z,38.50
2023-06-05T10:05:26.159Z,38.66
2023-06-05T10:06:25.677Z,38.63
2023-06-05T10:07:25.918Z,38.72
2023-06-05T10:08:25.921Z,38.70
2023-06-05T10:09:29.145Z,38.64
2023-06-05T10:10:25.648Z,38.80
2023-06-05T10:11:25.644Z,38.76
2023-06-05T10:12:26.646Z,38.85
2023-06-05T10:13:25.634Z,38.91
2023-06-05T10:14:33.330Z,38.98
2023-06-05T10:15:26.154Z,38.99
2023-06-05T10:16:29.486Z,39.02
2023-06-05T10:17:25.702Z,38.99
2023-06-05T10:18:25.608Z,38.98
2023-06-05T10:19:25.677Z,38.80
2023-06-05T10:20:27.176Z,39.09
2023-06-05T10:21:25.801Z,39.16
2023-06-05T10:22:26.692Z,39.16
2023-06-05T10:23:25.845Z,38.78
2023-06-05T10:24:25.806Z,38.91
2023-06-05T10:25:31.315Z,38.71
2023-06-05T10:26:26.180Z,38.73
2023-06-05T10:27:25.825Z,38.71
2023-06-05T10:28:25.872Z,38.77
2023-06-05T10:29:25.815Z,38.80
2023-06-05T10:30:26.196Z,38.83
2023-06-05T10:31:25.812Z,38.76
2023-06-05T10:32:26.179Z,38.78
2023-06-05T10:33:25.763Z,38.89
2023-06-05T10:34:26.185Z,38.90
2023-06-05T10:35:25.751Z,38.83
2023-06-05T10:36:25.748Z,38.80
2023-06-05T10:37:25.731Z,38.81
2023-06-05T10:38:25.730Z,38.73
2023-06-05T10:39:25.724Z,38.75
2023-06-05T10:40:25.722Z,38.68
2023-06-05T10:41:25.720Z,38.66
2023-06-05T10:42:26.190Z,38.73
2023-06-05T10:43:25.714Z,39.02
2023-06-05T10:44:33.091Z,39.02
2023-06-05T10:45:25.695Z,38.99
2023-06-05T10:46:25.700Z,39.04
2023-06-05T10:47:26.218Z,38.95
2023-06-05T10:48:25.686Z,38.96
2023-06-05T10:49:25.669Z,38.94
2023-06-05T10:50:25.658Z,38.83
2023-06-05T10:51:25.647Z,38.84
2023-06-05T10:52:25.680Z,38.87
2023-06-05T10:53:25.643Z,38.71
2023-06-05T10:54:25.657Z,38.84
2023-06-05T10:55:25.618Z,38.90
2023-06-05T10:56:25.609Z,38.91
2023-06-05T10:57:25.603Z,38.82
2023-06-05T10:58:25.673Z,38.82
2023-06-05T10:59:25.588Z,38.76
2023-06-05T11:00:25.707Z,38.73
2023-06-05T11:01:25.619Z,38.80
2023-06-05T11:02:25.666Z,38.78
2023-06-05T11:03:25.981Z,38.74
2023-06-05T11:04:25.956Z,38.70
2023-06-05T11:05:26.185Z,38.75
2023-06-05T11:06:25.967Z,38.89
2023-06-05T11:07:26.068Z,38.79
2023-06-05T11:08:26.186Z,38.78
2023-06-05T11:09:25.972Z,38.72
2023-06-05T11:10:25.968Z,38.60
2023-06-05T11:11:25.971Z,38.51
2023-06-05T11:12:25.965Z,38.57
2023-06-05T11:13:26.188Z,38.57
2023-06-05T11:14:25.987Z,38.54
2023-06-05T11:15:26.034Z,38.59
2023-06-05T11:16:26.198Z,38.66
2023-06-05T11:17:26.208Z,38.67
2023-06-05T11:18:26.130Z,38.68
2023-06-05T11:19:26.163Z,38.90
2023-06-05T11:20:34.360Z,39.02
2023-06-05T11:21:26.187Z,38.93
2023-06-05T11:22:26.191Z,38.84
2023-06-05T11:23:26.192Z,38.84
2023-06-05T11:24:26.157Z,38.88
2023-06-05T11:25:26.173Z,38.95
2023-06-05T11:26:26.152Z,39.05
2023-06-05T11:27:26.191Z,39.03
2023-06-05T11:28:26.188Z,38.93
2023-06-05T11:29:26.191Z,39.03
2023-06-05T11:30:43.269Z,38.95
2023-06-05T11:31:26.162Z,39.22
2023-06-05T11:32:26.210Z,39.17
2023-06-05T11:33:26.128Z,39.13
2023-06-05T11:34:26.092Z,39.11
2023-06-05T11:35:26.089Z,39.11
2023-06-05T11:36:26.200Z,39.28
2023-06-05T11:37:26.067Z,39.28
2023-06-05T11:38:26.061Z,39.22
2023-06-05T11:39:26.058Z,39.20
2023-06-05T11:40:26.055Z,39.27
2023-06-05T11:41:26.056Z,39.38
2023-06-05T11:42:26.045Z,39.28
2023-06-05T11:43:26.240Z,39.28
2023-06-05T11:44:26.017Z,39.24
2023-06-05T11:45:26.210Z,39.22
2023-06-05T11:46:26.082Z,39.15
2023-06-05T11:47:26.086Z,39.19
2023-06-05T11:48:26.290Z,39.34
2023-06-05T11:49:25.997Z,39.52
2023-06-05T11:50:26.209Z,39.36
2023-06-05T11:51:25.975Z,39.36
2023-06-05T11:52:26.002Z,39.36
2023-06-05T11:53:25.966Z,39.36
2023-06-05T11:54:25.968Z,39.39
2023-06-05T11:55:26.221Z,39.65
2023-06-05T11:56:41.820Z,39.64
2023-06-05T11:57:26.270Z,39.65
2023-06-05T11:58:25.937Z,39.83
2023-06-05T11:59:26.337Z,40.08
2023-06-05T12:00:26.542Z,40.13
2023-06-05T12:01:26.238Z,40.12
2023-06-05T12:02:26.293Z,40.24
2023-06-05T12:03:25.953Z,39.98
2023-06-05T12:04:25.904Z,40.16
2023-06-05T12:05:26.098Z,40.30
2023-06-05T12:06:25.876Z,40.25
2023-06-05T12:07:26.940Z,40.39
2023-06-05T12:08:26.007Z,40.40
2023-06-05T12:09:25.944Z,40.39
2023-06-05T12:10:25.942Z,40.35
2023-06-05T12:11:25.855Z,40.34
2023-06-05T12:12:27.210Z,40.34
2023-06-05T12:13:25.821Z,40.18
2023-06-05T12:14:25.822Z,40.23
2023-06-05T12:15:25.837Z,40.13
2023-06-05T12:16:26.858Z,40.41
2023-06-05T12:17:26.571Z,40.33
2023-06-05T12:18:25.803Z,40.36
2023-06-05T12:19:25.868Z,40.32
2023-06-05T12:20:26.609Z,40.36
2023-06-05T12:21:25.772Z,40.54
2023-06-05T12:22:26.217Z,40.58
2023-06-05T12:23:25.844Z,40.44
2023-06-05T12:24:26.011Z,40.38
2023-06-05T12:25:27.217Z,40.43
2023-06-05T12:26:25.779Z,40.60
2023-06-05T12:27:26.218Z,40.66
2023-06-05T12:28:25.766Z,40.54
2023-06-05T12:29:25.874Z,40.47
2023-06-05T12:30:25.769Z,40.39
2023-06-05T12:31:25.791Z,40.56
2023-06-05T12:32:25.797Z,40.45
2023-06-05T12:33:25.787Z,40.49
2023-06-05T12:34:26.228Z,40.41
2023-06-05T12:35:25.788Z,40.59
2023-06-05T12:36:25.771Z,40.63
2023-06-05T12:37:25.770Z,40.68
2023-06-05T12:38:26.028Z,40.76
2023-06-05T12:39:26.227Z,40.79
2023-06-05T12:40:36.775Z,40.61
2023-06-05T12:41:26.025Z,40.66
2023-06-05T12:42:25.921Z,40.54
2023-06-05T12:43:26.230Z,40.58
2023-06-05T12:44:25.806Z,40.72
2023-06-05T12:45:25.772Z,40.61
2023-06-05T12:46:26.063Z,40.68
2023-06-05T12:47:26.319Z,40.84
2023-06-05T12:48:26.027Z,40.67
2023-06-05T12:49:25.977Z,40.69
2023-06-05T12:50:25.725Z,40.68
2023-06-05T12:51:25.710Z,40.71
2023-06-05T12:52:25.738Z,40.66
2023-06-05T12:53:25.697Z,40.69
2023-06-05T12:54:25.739Z,40.88
2023-06-05T12:55:26.052Z,40.76
2023-06-05T12:56:25.682Z,40.79
2023-06-05T12:57:25.671Z,40.90
2023-06-05T12:58:25.749Z,41.01
2023-06-05T12:59:25.655Z,41.29
2023-06-05T13:00:25.644Z,41.26
2023-06-05T13:01:25.695Z,41.30
2023-06-05T13:02:25.737Z,41.41
2023-06-05T13:03:25.945Z,41.38
2023-06-05T13:04:25.745Z,41.46